Decoded Metar for DABT (BATNA in ALGERIA) (IATA:N/A) | Meteo·Mobile Aviation Weather
aviador You're here:

DABT Decoded Metar

BATNA in ALGERIA
Report Time2018-08-19 13:00:00
UTC Time2018-08-19 14:05:56
Flight Rules vfr VFR
Wind320° at 10 kt
W.Decomp.*RWY 23: 0.2 kt HW 10.0 kt RCW
W.Rank320° ranks 9
Current wind is above 320° avg. (9.3)
Visibility9999 m
Phenomena:N/A
Clouds:Scattered 020 Hf
Expected CloudBase > 6,400 ft AGL from Temp-Dew spread
CeilingNone
Temp29°C (ISA +21)
Dew Point13°C (37% RH)
Heat Index28.4°C
AAT26.3°C
QNH1019 hPa
Density Alt5,833 ft
Elevation3,451 ft
Report Wrong Elevation
Raw Report
DABT 191300Z 32010KT 9999 SCT020 29/13 Q1019=

Extra information for DABT:More info

Metar Taf Metar & Taf Last 4 Metars F.Rules Stats Wind Profile Meteogram Temp Stats Airport Information Weather charts Add Link Nearby VenuesMetar ALERT Operation Metar Decoded Social comments